Date,TemperatureHighF,TemperatureAvgF,TemperatureLowF,DewpointHighF,DewpointAvgF,DewpointLowF,HumidityHigh,HumidityAvg,HumidityLow,PressureMaxIn,PressureMinIn,WindSpeedMaxMPH,WindSpeedAvgMPH,GustSpeedMaxMPH,PrecipitationSumIn
2013-1-1,57.6,40.1,30.1,39.0,30.3,24.0,95,73,28,30.27,30.18,8,0,0,0.00
2013-1-2,61.0,40.3,28.2,37.0,28.4,23.0,90,69,25,30.22,30.11,6,0,0,0.00
2013-1-3,57.8,37.9,26.7,39.0,30.9,25.0,95,79,38,30.25,30.15,5,0,0,0.00
2013-1-4,62.6,41.4,30.0,41.0,33.0,29.0,96,77,29,30.27,30.15,3,0,0,0.00
2013-1-5,48.5,40.4,30.6,44.0,37.9,29.0,96,91,76,30.24,30.06,0,0,0,0.52
2013-1-6,54.2,44.3,35.0,46.0,41.7,34.0,97,91,71,30.17,30.06,2,0,0,0.02
2013-1-7,59.8,44.0,33.4,49.0,40.3,32.0,97,88,61,30.23,30.12,3,0,0,0.00
2013-1-8,60.2,45.8,37.5,50.0,42.6,37.0,97,89,68,30.22,30.11,4,0,0,0.00
2013-1-9,48.0,43.0,38.6,47.0,39.9,32.0,98,89,71,30.14,29.95,10,1,0,0.01
2013-1-10,52.0,40.0,31.9,35.0,31.6,27.0,93,74,44,30.16,30.03,6,1,0,0.01
2013-1-11,50.7,37.3,28.8,37.0,31.5,26.0,93,81,54,30.23,30.09,6,1,0,0.00
2013-1-12,52.3,37.7,27.0,32.0,27.5,20.0,92,71,34,30.23,30.11,4,0,0,0.00
2013-1-13,53.9,36.1,22.1,28.0,19.4,10.0,91,58,18,30.25,30.15,5,0,0,0.00
2013-1-14,58.0,44.2,30.1,29.0,16.4,7.0,83,38,17,30.37,30.22,9,1,0,0.00
2013-1-15,56.2,37.4,26.0,35.0,28.8,24.0,93,74,34,30.47,30.37,6,1,0,0.00
2013-1-16,60.5,38.9,25.6,41.0,31.8,24.0,95,79,43,30.42,30.25,3,0,0,0.00
2013-1-17,66.3,40.7,26.9,45.0,33.3,25.0,95,78,36,30.25,30.12,4,0,0,0.00
2013-1-18,70.4,44.6,29.3,39.0,29.6,21.0,92,65,17,30.21,30.10,4,0,0,0.00
2013-1-19,70.1,43.3,28.4,37.0,28.5,23.0,91,64,19,30.23,30.13,5,0,0,0.00
2013-1-20,69.8,44.3,29.0,36.0,28.6,21.0,89,63,16,30.21,30.09,6,0,0,0.00
2013-1-21,69.4,44.9,30.0,41.0,32.4,27.0,90,68,21,30.15,30.07,6,1,0,0.00
2013-1-22,67.9,47.1,30.6,42.0,33.5,27.0,89,65,25,30.09,29.98,5,0,0,0.00
2013-1-23,52.3,48.2,43.5,49.0,44.2,38.0,96,86,72,30.08,29.94,2,0,0,0.36
2013-1-24,61.8,52.4,48.0,56.0,50.0,47.0,98,92,69,30.17,30.05,3,0,0,0.02
2013-1-25,65.0,54.8,47.0,55.0,50.3,45.0,97,85,64,30.17,30.01,5,0,0,0.00
2013-1-26,59.5,49.5,40.8,49.0,40.7,35.0,97,75,47,30.03,29.92,7,1,0,0.00
2013-1-27,58.0,44.2,31.9,39.0,33.5,28.0,94,69,34,30.15,30.02,4,0,0,0.00
2013-1-28,60.7,46.3,36.2,40.0,36.4,32.0,88,70,41,30.25,30.13,6,1,0,0.00
2013-1-29,63.7,46.4,34.6,44.0,37.9,32.0,94,75,43,30.33,30.23,4,0,0,0.00
2013-1-30,68.1,49.6,38.6,48.0,41.6,36.0,92,76,45,30.31,30.22,10,1,0,0.00
2013-1-31,68.8,47.8,32.4,48.0,38.9,31.0,96,76,33,30.28,30.15,3,0,0,0.00
2013-2-1,71.5,48.9,32.8,49.0,38.6,31.0,96,73,30,30.20,30.09,5,0,0,0.00
2013-2-2,65.6,48.1,37.6,50.0,41.9,36.0,96,81,50,30.28,30.17,7,0,0,0.00
2013-2-3,62.1,47.8,38.0,50.0,43.4,36.0,97,86,60,30.23,30.10,5,0,0,0.00
2013-2-4,54.8,43.3,34.6,48.0,40.9,33.0,97,91,78,30.15,30.04,7,1,0,0.00
2013-2-5,62.3,48.6,41.6,47.0,42.4,37.0,95,81,54,30.13,30.00,8,1,0,0.00
2013-2-6,61.2,46.1,31.9,43.0,37.3,30.0,96,74,41,30.17,30.07,6,1,0,0.00
2013-2-7,55.7,44.8,36.3,47.0,37.6,33.0,96,78,45,30.14,29.97,9,1,0,0.11
2013-2-8,59.8,45.0,33.4,41.0,30.3,18.0,95,63,20,29.98,29.90,8,1,0,0.00
2013-2-9,63.9,49.0,34.4,32.0,24.6,16.0,82,43,17,30.07,29.96,5,1,0,0.00
2013-2-10,68.1,45.6,29.0,38.0,29.6,23.0,93,61,19,30.10,29.97,5,0,0,0.00
2013-2-11,69.9,53.0,37.0,37.0,28.9,21.0,84,45,18,30.20,30.05,5,1,0,0.00
2013-2-12,66.1,46.7,31.3,43.0,35.5,29.0,95,70,32,30.33,30.21,9,1,0,0.00
2013-2-13,65.6,47.2,32.4,48.0,39.4,31.0,96,77,47,30.31,30.17,5,1,0,0.00
2013-2-14,76.1,53.5,37.2,47.0,37.7,32.0,96,64,21,30.21,30.12,4,1,0,0.00
2013-2-15,75.8,55.2,39.9,45.0,37.5,30.0,86,58,21,30.23,30.16,7,0,0,0.00
2013-2-16,72.3,51.8,37.6,49.0,40.6,36.0,95,71,27,30.22,30.01,6,0,0,0.00
2013-2-17,68.4,48.7,33.7,46.0,37.7,32.0,95,70,29,30.02,29.92,7,1,0,0.00
2013-2-18,55.4,44.3,32.7,42.0,37.6,30.0,95,78,59,30.00,29.88,7,1,0,0.00
2013-2-19,50.1,42.4,32.7,42.0,34.9,29.0,93,76,49,29.92,29.70,11,2,0,0.17
2013-2-20,63.1,45.1,30.7,38.0,32.4,28.0,91,66,27,30.02,29.83,5,1,0,0.00
2013-2-21,65.3,47.3,31.0,39.0,31.2,23.0,93,61,21,30.14,30.02,9,1,0,0.00
2013-2-22,66.8,50.0,33.4,42.0,36.2,31.0,92,64,29,30.22,30.12,11,1,0,0.00
2013-2-23,61.6,50.2,38.9,40.0,31.9,20.0,88,55,21,30.23,30.12,7,1,0,0.00
2013-2-24,71.3,53.5,37.9,35.0,23.1,14.0,79,35,13,30.24,30.10,6,1,0,0.00
2013-2-25,70.6,48.3,32.7,43.0,35.7,30.0,92,67,24,30.24,30.12,5,0,0,0.00
2013-2-26,74.2,51.9,33.2,36.0,25.9,16.0,92,48,11,30.20,30.10,6,1,0,0.00
2013-2-27,69.8,51.2,32.7,43.0,33.8,27.0,84,57,22,30.32,30.17,6,1,0,0.00
2013-2-28,74.4,57.9,46.1,54.0,47.0,42.0,91,70,41,30.41,30.32,6,0,0,0.00
2013-3-1,77.7,56.9,39.9,53.0,45.5,38.0,96,71,29,30.40,30.20,7,0,0,0.00
2013-3-2,73.3,58.3,45.4,55.0,47.9,44.0,96,72,40,30.22,30.02,5,0,0,0.00
2013-3-3,70.4,57.1,44.2,50.0,46.9,41.0,89,71,43,30.05,29.96,11,2,0,0.00
2013-3-4,61.5,48.2,38.2,48.0,42.4,35.0,94,82,55,30.13,30.01,6,0,0,0.00
2013-3-5,56.6,45.7,31.8,46.0,38.7,30.0,95,78,56,30.04,29.76,15,3,0,0.28
2013-3-6,56.3,48.8,37.2,46.0,39.4,34.0,89,71,48,30.03,29.76,15,4,0,0.38
2013-3-7,55.0,44.4,34.3,42.0,36.3,32.0,95,75,49,29.98,29.85,5,0,0,0.00
2013-3-8,65.3,48.5,34.0,41.0,36.3,29.0,94,67,26,30.01,29.80,10,1,0,0.00
2013-3-9,73.5,52.6,35.2,42.0,35.6,24.0,94,61,16,30.28,30.01,6,1,0,0.00
2013-3-10,74.2,53.0,37.8,44.0,36.3,27.0,85,59,18,30.32,30.20,7,1,0,0.00
2013-3-11,75.6,55.0,36.3,45.0,40.0,34.0,92,63,29,30.23,30.06,9,1,0,0.00
2013-3-12,77.7,57.3,38.9,53.0,45.3,37.0,95,69,38,30.13,30.02,5,1,0,0.00
2013-3-13,81.6,61.0,42.5,55.0,47.8,41.0,96,68,30,30.13,30.02,5,0,0,0.00
2013-3-14,76.3,59.1,46.4,55.0,48.4,39.0,96,71,32,30.12,30.05,5,0,0,0.00
2013-3-15,77.4,53.0,43.3,47.0,42.5,39.0,90,72,32,30.10,30.02,3,0,0,0.00
2013-3-30,67.1,59.8,53.9,56.0,52.6,49.0,93,78,67,30.01,29.96,10,1,0,0.08
2013-3-31,63.9,55.6,52.0,55.0,53.1,50.0,96,91,62,30.05,29.98,6,0,0,0.48
2013-4-1,64.3,56.4,49.4,57.0,51.9,46.0,97,86,65,30.12,30.03,4,0,0,0.01
2013-4-2,70.9,55.6,44.1,56.0,48.5,43.0,97,79,49,30.15,30.04,6,1,0,0.00
2013-4-3,76.3,57.3,45.7,56.0,48.2,-99.9,96,77,37,30.11,29.93,6,-10,0,0.00
2013-4-4,62.4,55.7,50.8,59.0,52.9,49.0,97,90,78,30.09,29.96,5,1,0,0.80
2013-4-5,64.8,56.7,51.1,53.0,50.7,48.0,95,81,61,30.15,30.07,10,2,0,0.00
2013-4-6,68.6,58.4,51.6,54.0,50.1,47.0,91,75,51,30.15,30.07,9,1,0,0.00
2013-4-7,64.5,55.8,50.4,56.0,48.9,44.0,96,78,60,30.13,29.77,10,2,0,0.04
2013-4-8,71.5,57.3,43.2,41.0,34.3,16.0,76,47,12,30.01,29.76,9,1,0,0.00
2013-4-9,79.4,62.1,43.9,43.0,33.0,22.0,78,40,12,30.09,30.00,6,0,0,0.00
2013-4-10,87.4,68.7,51.1,51.0,45.9,39.0,77,48,23,30.14,29.96,8,0,0,0.00
2013-4-11,81.1,64.3,50.1,49.0,44.4,34.0,81,54,20,30.00,29.78,8,1,0,0.00
2013-4-12,80.1,59.5,42.2,50.0,44.1,39.0,94,63,27,29.89,29.76,7,0,0,0.00
2013-4-13,79.0,60.4,44.1,49.0,43.9,38.0,92,59,30,29.86,29.74,5,0,0,0.00
2013-4-14,75.3,57.6,44.3,44.0,38.9,34.0,72,52,25,29.89,29.77,12,2,0,0.00
2013-4-15,62.6,52.0,42.5,42.0,36.3,29.0,86,59,29,29.92,29.79,11,2,0,0.00
2013-4-16,70.3,56.3,39.2,33.0,25.4,18.0,76,36,15,30.14,29.92,6,1,0,0.00
2013-4-17,72.8,60.8,51.0,29.0,25.0,17.0,42,27,12,30.25,30.14,4,1,0,0.00
2013-4-18,81.8,63.8,44.8,41.0,33.9,27.0,65,37,16,30.22,30.12,8,1,0,0.00
2013-4-19,84.1,63.4,43.6,49.0,43.8,40.0,90,54,27,30.20,30.02,9,1,0,0.00
2013-4-20,86.1,66.7,48.2,45.0,40.6,31.0,75,45,14,30.08,29.92,6,1,0,0.00
2013-4-21,90.1,68.0,45.5,49.0,42.5,33.0,88,48,13,30.00,29.88,12,1,0,0.00
2013-4-22,93.4,71.9,52.3,53.0,40.5,26.0,80,42,9,29.93,29.79,5,0,0,0.00
2013-4-23,88.8,72.8,53.2,43.0,27.1,15.0,65,21,8,29.89,29.78,7,1,0,0.00
2013-4-24,77.9,58.1,42.5,52.0,44.8,39.0,89,65,37,29.91,29.78,9,1,0,0.00
2013-4-25,71.5,57.1,48.3,50.0,46.2,44.0,85,69,45,30.09,29.91,6,1,0,0.00
2013-4-26,81.4,59.3,43.3,54.0,47.3,41.0,93,69,31,30.19,30.08,9,1,0,0.00
2013-4-27,87.4,62.4,46.1,56.0,48.5,43.0,91,66,22,30.20,30.02,5,1,0,0.00
2013-4-28,92.3,66.6,45.2,55.0,49.6,43.0,93,61,22,30.04,29.84,5,0,0,0.00
2013-4-29,93.2,73.6,52.9,53.0,49.6,44.0,83,48,20,29.87,29.71,6,0,0,0.00
2013-4-30,88.6,71.8,51.9,48.0,30.0,10.0,80,33,7,29.85,29.74,6,1,0,0.00
2013-5-1,88.8,76.3,65.3,31.0,20.6,12.0,23,13,8,30.03,29.84,9,1,0,0.00
2013-5-2,94.5,76.0,57.6,40.0,29.4,21.0,44,20,9,30.11,30.01,7,1,0,0.00
2013-5-3,96.6,71.0,46.1,47.0,38.2,34.0,72,36,12,30.03,29.75,7,1,0,0.00
2013-5-4,92.9,72.5,52.8,53.0,38.5,27.0,83,38,10,29.75,29.50,6,1,0,0.00
2013-5-5,66.6,60.0,54.1,51.0,48.0,45.0,79,65,53,29.79,29.58,6,1,0,0.00
2013-5-6,71.6,59.4,49.8,55.0,49.8,46.0,89,72,45,29.94,29.79,6,0,0,0.01
2013-5-7,73.9,63.2,56.3,53.0,50.1,47.0,83,64,45,29.99,29.93,14,2,0,0.00
2013-5-8,74.6,59.9,50.8,55.0,50.1,46.0,88,72,48,30.10,29.99,10,1,0,0.00
2013-5-9,79.4,61.4,47.4,56.0,50.0,44.0,91,69,42,30.13,30.01,6,1,0,0.00
2013-5-10,82.2,63.6,50.8,59.0,51.7,47.0,89,68,44,30.15,30.03,6,1,0,0.00
2013-5-11,93.6,68.0,47.9,61.0,52.3,45.0,93,63,27,30.12,29.98,5,0,0,0.00
2013-5-12,91.8,68.8,47.0,58.0,50.3,44.0,93,57,21,30.10,29.95,5,1,0,0.00
2013-5-13,87.6,67.0,46.5,60.0,51.8,43.0,92,61,37,30.04,29.89,10,1,0,0.00
2013-5-14,83.0,65.6,49.9,57.0,51.3,46.0,90,63,37,29.94,29.84,10,2,0,0.00
2013-5-15,83.4,62.4,43.9,49.0,45.3,41.0,92,59,24,29.99,29.91,7,1,0,0.00
2013-5-16,75.3,63.6,55.6,53.0,48.2,45.0,70,58,40,29.97,29.88,11,2,0,0.00
2013-5-17,75.4,60.8,45.5,48.0,43.4,39.0,87,56,28,30.03,29.92,9,1,0,0.00
2013-5-18,85.1,63.9,42.2,49.0,44.5,39.0,91,55,24,30.09,29.99,7,1,0,0.00
2013-5-19,89.3,69.4,48.2,48.0,41.6,33.0,80,43,14,30.09,29.92,9,1,0,0.00
2013-5-20,92.5,76.0,56.5,46.0,39.1,34.0,59,30,13,29.96,29.83,6,1,0,0.00
2013-5-21,76.7,64.0,51.7,46.0,42.4,36.0,79,49,27,29.94,29.84,7,1,0,0.00
2013-5-22,73.9,57.6,38.8,39.0,32.8,24.0,73,44,19,29.99,29.84,7,0,0,0.00
2013-5-23,75.4,59.7,43.5,42.0,39.2,36.0,80,51,26,29.96,29.86,10,1,0,0.00
2013-5-24,78.6,61.5,45.4,43.0,40.8,38.0,79,50,26,29.96,29.85,7,1,0,0.00
2013-5-25,78.8,60.5,42.1,49.0,43.0,38.0,89,57,30,29.97,29.89,8,1,0,0.00
2013-5-26,77.2,63.1,48.9,52.0,47.3,41.0,86,59,30,30.05,29.97,9,2,0,0.00
2013-5-27,64.8,58.3,51.1,55.0,49.5,43.0,90,73,64,30.07,29.96,6,1,0,0.05
2013-5-28,78.6,64.6,54.2,60.0,54.2,51.0,95,72,44,29.96,29.86,8,1,0,0.01
2013-5-29,81.1,68.1,57.5,53.0,49.5,46.0,73,54,34,29.91,29.83,8,1,0,0.00
2013-5-30,86.1,67.2,48.6,49.0,44.9,41.0,84,50,21,29.94,29.86,5,0,0,0.00
2013-5-31,94.7,72.9,48.9,51.0,46.3,42.0,82,45,17,29.98,29.84,7,0,0,0.00
2013-6-1,97.3,75.0,51.1,55.0,48.7,44.0,85,45,20,29.89,29.72,3,0,0,0.00
2013-6-2,89.0,70.5,52.8,57.0,51.2,45.0,81,53,32,29.74,29.60,6,1,0,0.00
2013-6-3,81.6,63.8,50.7,57.0,51.2,47.0,91,66,41,29.83,29.69,8,2,0,0.00
2013-6-4,75.4,61.5,48.6,53.0,50.3,45.0,92,69,44,29.93,29.82,6,1,0,0.00
2013-6-5,81.8,65.5,53.5,58.0,52.4,49.0,85,65,42,29.96,29.83,8,1,0,0.00
2013-6-6,87.6,66.3,52.0,60.0,53.0,48.0,87,65,38,29.91,29.78,6,1,0,0.00
2013-6-7,98.2,71.8,50.2,65.0,56.2,47.0,91,63,31,29.85,29.67,6,0,0,0.00
2013-6-8,97.5,74.3,58.0,66.0,59.0,52.0,90,62,33,29.77,29.62,12,1,0,0.00
2013-6-9,69.3,61.8,56.2,55.0,52.8,51.0,85,73,59,29.85,29.77,9,3,0,0.00
2013-6-10,61.6,58.4,54.1,57.0,53.5,50.0,91,84,75,29.94,29.74,4,0,0,0.06
2013-6-11,86.5,66.9,49.5,59.0,53.9,47.0,95,67,37,29.95,29.83,5,0,0,0.00
2013-6-12,88.6,67.2,44.6,52.0,44.0,33.0,93,51,14,29.93,29.85,5,1,0,0.00
2013-6-13,86.3,68.8,49.5,47.0,43.1,39.0,71,44,19,30.04,29.93,9,1,0,0.00
2013-6-14,91.8,73.3,53.6,52.0,40.1,31.0,71,37,12,29.95,29.75,6,1,0,0.00
2013-6-15,79.6,63.3,48.2,57.0,51.2,44.0,90,67,45,29.94,29.80,9,2,0,0.00
2013-6-16,91.6,71.5,46.0,52.0,47.3,41.0,90,49,19,30.02,29.94,7,1,0,0.00
2013-6-17,85.1,69.4,51.7,53.0,49.1,45.0,82,52,29,30.03,29.94,6,1,0,0.00
2013-6-18,78.1,64.6,48.6,53.0,46.2,39.0,94,56,25,29.97,29.88,16,2,0,0.00
2013-6-19,82.6,65.6,48.9,48.0,44.4,41.0,81,50,24,30.01,29.92,6,1,0,0.00
2013-6-20,85.7,69.8,49.4,49.0,43.7,37.0,81,44,20,29.96,29.85,8,1,0,0.00
2013-6-21,89.9,69.6,47.9,52.0,45.6,42.0,83,48,20,29.93,29.83,6,1,0,0.00
2013-6-22,94.3,71.7,49.6,55.0,47.0,41.0,84,48,16,29.89,29.75,11,1,0,0.00
2013-6-23,72.7,65.7,57.3,59.0,54.9,49.0,82,69,51,29.81,29.76,6,1,0,0.00
2013-6-24,64.8,60.7,57.6,59.0,55.5,53.0,94,83,73,29.88,29.75,4,0,0,0.14
2013-6-25,66.4,62.9,58.6,65.0,61.5,57.0,97,95,91,29.95,29.85,6,1,0,0.47
2013-6-26,81.4,70.1,63.2,66.0,62.6,60.0,96,79,49,30.02,29.95,6,1,0,0.01
2013-6-27,94.0,74.1,58.3,67.0,61.8,56.0,95,70,29,30.05,29.95,7,0,0,0.00
2013-6-28,101.5,80.9,61.8,70.0,61.0,49.0,94,57,20,30.00,29.82,7,0,0,0.00
2013-6-29,103.8,82.8,59.9,68.0,60.2,56.0,89,52,22,29.87,29.72,6,0,0,0.00
2013-6-30,97.5,76.7,60.4,67.0,61.7,57.0,91,64,33,29.81,29.68,6,1,0,0.00
2013-7-1,99.4,76.4,58.6,68.0,61.2,56.0,93,64,32,29.81,29.74,6,0,0,0.00
2013-7-2,92.3,76.1,64.3,67.0,60.8,58.0,84,61,38,29.87,29.77,11,2,0,0.00
2013-7-3,99.9,79.2,61.3,67.0,60.9,57.0,85,58,27,29.87,29.68,4,0,0,0.00
2013-7-4,97.1,79.7,66.3,67.0,62.4,56.0,82,58,34,29.75,29.60,6,1,0,0.00
2013-7-5,78.5,67.6,55.3,58.0,53.5,46.0,83,62,47,29.72,29.63,9,2,0,0.00
2013-7-6,79.6,63.5,56.5,58.0,53.8,52.0,85,73,47,29.78,29.68,7,2,0,0.00
2013-7-7,88.2,66.3,56.7,59.0,55.0,51.0,88,71,28,29.82,29.71,7,1,0,0.00
2013-7-8,89.3,65.3,52.0,58.0,52.6,48.0,92,68,26,29.94,29.83,7,1,0,0.00
2013-7-9,99.4,75.1,51.6,58.0,51.3,47.0,94,52,18,29.99,29.86,6,0,0,0.00
2013-7-10,93.2,70.7,53.2,60.0,51.2,29.0,89,57,14,29.94,29.81,7,1,0,0.00
2013-7-11,81.8,62.3,51.6,58.0,51.7,47.0,86,71,42,29.92,29.80,10,1,0,0.00
2013-7-12,84.0,64.5,53.5,59.0,54.1,51.0,91,72,42,29.91,29.80,10,1,0,0.00
2013-7-13,88.8,68.9,53.9,58.0,54.6,50.0,90,65,32,29.93,29.83,9,1,0,0.00
2013-7-14,86.3,66.8,49.6,60.0,53.8,47.0,93,67,40,29.97,29.83,6,1,0,0.00
2013-7-15,82.4,62.4,50.8,57.0,50.9,47.0,90,69,38,29.89,29.76,6,1,0,0.00
2013-7-16,76.0,62.6,53.8,55.0,51.7,48.0,84,69,47,29.98,29.83,5,1,0,0.00
2013-7-17,87.2,66.2,49.6,60.0,54.5,47.0,93,69,39,30.07,29.95,9,1,0,0.00
2013-7-18,92.9,68.1,50.8,61.0,54.7,47.0,94,67,23,30.03,29.86,6,1,0,0.00
2013-7-19,91.6,69.5,55.1,61.0,56.7,53.0,92,68,35,29.92,29.75,6,1,0,0.00
2013-7-20,89.3,67.6,56.7,61.0,56.3,54.0,89,70,37,29.82,29.67,7,1,0,0.00
2013-7-21,87.8,68.6,57.2,59.0,55.7,53.0,87,67,37,29.83,29.70,7,1,0,0.00
2013-7-22,90.1,69.5,54.1,60.0,54.5,50.0,89,63,28,29.92,29.84,11,1,0,0.00
2013-7-23,87.8,72.9,63.4,61.0,52.6,30.0,74,53,17,29.96,29.88,7,1,0,0.00
2013-7-24,96.8,75.5,56.9,60.0,53.1,49.0,85,51,20,29.94,29.82,8,1,0,0.00
2013-7-25,89.9,72.2,57.0,60.0,54.8,51.0,82,57,35,29.97,29.86,6,1,0,0.00
2013-7-26,90.1,68.8,52.8,61.0,54.3,48.0,88,63,36,30.05,29.92,7,1,0,0.00
2013-7-27,86.3,66.4,51.9,60.0,54.2,48.0,90,68,39,29.98,29.80,7,1,0,0.00
2013-7-28,81.8,63.8,53.5,59.0,53.2,49.0,87,71,43,29.85,29.74,9,1,0,0.00
2013-7-29,81.1,62.9,54.4,57.0,52.3,49.0,86,70,44,29.97,29.80,5,0,0,0.00
2013-7-30,85.1,65.9,54.5,59.0,53.6,50.0,86,67,40,30.07,29.96,8,1,0,0.00
2013-7-31,83.6,64.8,53.5,58.0,52.3,49.0,86,67,40,30.05,29.91,4,1,0,0.00
2013-8-1,83.2,64.1,46.5,55.0,50.8,43.0,92,65,37,30.00,29.90,7,1,0,0.00
2013-8-2,88.4,67.1,47.4,58.0,52.4,44.0,91,63,31,29.94,29.83,9,2,0,0.00
2013-8-3,83.0,65.7,56.0,58.0,54.5,52.0,88,70,41,29.95,29.84,9,1,0,0.00
2013-8-4,81.6,64.0,53.1,58.0,53.0,50.0,92,71,43,29.98,29.88,6,1,0,0.00
2013-8-5,84.3,62.7,52.9,57.0,52.3,49.0,88,71,39,29.99,29.87,10,1,0,0.00
2013-8-6,83.2,67.6,54.5,56.0,52.7,50.0,85,62,36,30.00,29.91,8,2,0,0.00
2013-8-7,76.5,63.1,55.4,56.0,53.1,50.0,84,71,49,30.06,29.99,6,2,0,0.00
2013-8-8,83.4,65.0,55.6,57.0,53.3,51.0,85,68,38,30.00,29.87,5,1,0,0.00
2013-8-9,83.4,63.7,53.9,56.0,52.5,50.0,89,70,37,29.96,29.85,7,1,0,0.00
2013-8-10,85.5,66.6,54.5,58.0,54.0,50.0,87,67,34,30.00,29.92,5,1,0,0.00
2013-8-11,89.3,67.7,53.6,59.0,54.1,48.0,91,66,25,29.99,29.86,7,1,0,0.00
2013-8-12,89.7,65.8,49.8,59.0,52.6,46.0,93,67,22,29.97,29.86,6,1,0,0.00
2013-8-13,96.1,71.3,50.7,56.0,50.7,44.0,91,56,19,29.96,29.83,6,1,0,0.00
2013-8-14,91.4,70.8,51.1,57.0,53.3,48.0,92,59,28,29.94,29.81,10,1,0,0.00
2013-8-15,96.1,73.0,53.6,63.0,57.5,51.0,93,63,27,29.91,29.83,6,1,0,0.00
2013-8-16,95.6,75.1,59.9,64.0,57.0,43.0,93,60,24,29.94,29.86,7,1,0,0.00
2013-8-17,83.8,69.9,54.1,60.0,56.5,50.0,91,65,44,29.95,29.79,5,1,0,0.00
2013-8-18,101.5,75.8,57.0,63.0,57.9,54.0,92,60,23,29.86,29.71,5,0,0,0.00
2013-8-19,96.6,75.2,62.3,64.0,59.1,56.0,84,61,27,29.87,29.74,2,0,0,0.00
2013-8-20,89.5,71.2,59.5,61.0,56.7,52.0,85,63,38,29.86,29.74,5,1,0,0.00
2013-8-21,89.7,68.7,56.5,58.0,52.7,44.0,89,61,28,29.90,29.78,5,0,0,0.00
2013-8-22,84.3,65.9,52.0,57.0,51.8,46.0,89,63,34,29.93,29.82,5,1,0,0.00
2013-8-23,85.3,66.2,51.0,59.0,53.9,47.0,91,68,39,29.89,29.74,8,1,0,0.00
2013-8-24,88.0,67.7,50.2,57.0,53.4,47.0,94,64,31,29.84,29.77,7,1,0,0.00
2013-8-25,84.7,69.4,55.6,60.0,56.4,52.0,91,66,40,29.89,29.83,10,1,0,0.00
2013-8-26,89.7,70.8,56.7,58.0,54.4,51.0,89,61,30,29.97,29.83,9,0,0,0.00
2013-8-27,93.4,69.8,50.1,55.0,51.2,47.0,91,57,23,29.87,29.74,8,1,0,0.00
2013-8-28,91.4,69.7,50.7,60.0,55.3,47.0,93,64,32,29.89,29.80,8,1,0,0.00
2013-8-29,91.2,73.6,58.6,63.0,58.7,54.0,91,64,33,30.00,29.89,6,1,0,0.00
2013-8-30,98.2,76.3,56.0,61.0,56.2,50.0,93,56,21,30.00,29.84,5,0,0,0.00
2013-8-31,94.0,72.4,53.3,58.0,53.0,43.0,91,56,20,29.92,29.81,8,1,0,0.00
2013-9-1,90.7,71.5,58.6,58.0,54.8,51.0,83,59,28,29.90,29.80,6,1,0,0.00
2013-9-2,88.4,73.1,57.8,60.0,57.3,53.0,86,60,31,29.90,29.81,10,2,0,0.00
2013-9-3,87.4,68.0,52.3,57.0,52.9,48.0,93,64,26,29.94,29.85,11,1,0,0.00
2013-9-4,90.5,68.3,49.8,57.0,52.7,47.0,93,63,23,29.98,29.85,7,1,0,0.00
2013-9-5,90.3,69.4,49.9,56.0,50.0,42.0,93,57,19,29.95,29.86,10,1,0,0.00
2013-9-6,98.5,73.7,51.3,54.0,47.0,42.0,87,47,15,29.94,29.77,6,0,0,0.00
2013-9-7,100.2,75.0,50.8,50.0,45.2,41.0,82,42,15,29.83,29.73,6,1,0,0.00
2013-9-8,100.4,73.9,51.0,56.0,48.9,39.0,87,48,16,29.84,29.69,6,1,0,0.00
2013-9-9,102.3,74.5,52.6,56.0,50.8,44.0,86,51,14,29.77,29.62,6,1,0,0.00
2013-9-10,85.5,66.5,55.7,60.0,55.7,52.0,90,70,41,29.86,29.69,6,1,0,0.00
2013-9-11,78.6,67.1,62.3,59.0,57.5,57.0,84,72,50,29.96,29.86,5,1,0,0.00
2013-9-12,90.3,70.6,59.5,61.0,57.7,54.0,85,67,33,29.95,29.80,10,1,0,0.00
2013-9-13,88.2,68.1,56.9,60.0,55.8,52.0,90,68,38,29.87,29.68,6,1,0,0.00
2013-9-14,85.3,64.8,50.2,59.0,53.4,47.0,93,70,40,29.79,29.66,8,1,0,0.00
2013-9-15,86.1,65.8,49.8,57.0,53.1,46.0,93,68,32,29.82,29.74,9,1,0,0.00
2013-9-16,88.6,68.7,52.8,58.0,53.9,50.0,95,65,29,29.86,29.70,6,1,0,0.00
2013-9-17,85.1,66.4,50.2,55.0,49.6,47.0,95,60,27,29.84,29.75,6,1,0,0.00
2013-9-18,91.4,69.3,50.5,49.0,43.3,33.0,83,47,13,29.88,29.74,7,1,0,0.00
2013-9-19,95.6,67.7,44.8,46.0,38.8,25.0,87,44,15,29.82,29.69,6,1,0,0.00
2013-9-20,82.0,62.0,42.5,59.0,47.2,28.0,84,60,40,29.80,29.72,9,1,0,0.00
2013-9-21,71.1,62.5,52.9,61.0,56.0,49.0,96,81,49,29.86,29.74,10,1,0,0.32
2013-9-22,79.8,61.6,46.5,55.0,49.2,43.0,95,69,28,29.97,29.86,5,1,0,0.00
2013-9-23,85.9,67.0,49.1,57.0,52.7,47.0,95,65,32,29.99,29.86,10,1,0,0.00
2013-9-24,82.8,65.4,52.8,55.0,49.4,44.0,92,61,27,29.94,29.82,9,1,0,0.00
2013-9-25,76.7,62.3,51.0,47.0,42.9,36.0,79,53,23,29.89,29.75,7,1,0,0.00
2013-9-26,80.1,63.8,46.7,42.0,34.7,29.0,78,38,16,29.96,29.82,7,1,0,0.00
2013-9-27,84.0,66.7,51.6,40.0,33.9,28.0,61,33,14,30.05,29.95,7,1,0,0.00
2013-9-28,87.2,64.1,43.2,53.0,40.3,33.0,84,50,15,30.05,29.94,6,1,0,0.00
2013-9-29,74.2,62.3,54.2,62.0,56.1,50.0,93,80,58,30.06,30.00,5,0,0,0.03
2013-9-30,72.7,65.4,57.2,65.0,60.6,50.0,96,85,68,30.02,29.93,6,1,0,0.02
2013-10-1,82.6,61.8,43.8,52.0,48.0,41.0,93,66,27,29.98,29.86,3,0,0,0.00
2013-10-2,82.6,61.9,46.4,52.0,44.0,36.0,95,59,19,29.97,29.86,5,0,0,0.00
2013-10-3,76.3,61.3,40.3,40.0,31.2,24.0,83,41,15,30.05,29.94,6,1,0,0.00
2013-10-4,83.6,71.4,63.4,27.0,24.5,21.0,23,18,10,30.06,29.98,7,2,0,0.00
2013-10-5,88.6,67.5,47.1,37.0,27.6,22.0,55,27,9,30.16,30.05,9,0,0,0.00
2013-10-6,87.4,63.1,40.1,38.0,32.3,28.0,78,39,12,30.10,29.96,7,0,0,0.00
2013-10-7,87.4,63.4,42.1,36.0,31.2,21.0,67,37,9,29.97,29.80,7,0,0,0.00
2013-10-8,81.4,58.9,40.3,46.0,38.8,34.0,84,53,20,29.87,29.66,8,1,0,0.00
2013-10-9,77.7,57.9,40.1,44.0,37.4,33.0,90,54,20,29.72,29.59,5,0,0,0.00
2013-10-10,75.3,59.6,47.1,49.0,41.9,34.0,82,55,31,29.97,29.71,7,1,0,0.00
2013-10-11,76.5,55.0,38.5,48.0,41.6,36.0,93,65,30,30.06,29.93,5,1,0,0.00
2013-10-12,78.6,55.2,38.3,49.0,41.8,35.0,92,66,22,29.98,29.83,5,0,0,0.00
2013-10-13,80.5,60.2,43.8,43.0,37.8,29.0,84,51,16,30.04,29.88,5,0,0,0.00
2013-10-14,84.0,60.0,42.3,42.0,35.4,28.0,82,49,13,30.09,29.95,7,0,0,0.00
2013-10-15,85.7,62.7,44.2,38.0,29.9,22.0,70,37,10,30.02,29.91,6,0,0,0.00
2013-10-16,86.1,61.0,38.3,36.0,30.7,26.0,75,39,12,30.06,29.96,6,0,0,0.00
2013-10-17,87.2,60.7,39.5,38.0,32.6,30.0,75,42,13,30.05,29.90,5,0,0,0.00
2013-10-18,86.7,59.9,38.9,40.0,36.0,32.0,80,47,16,30.02,29.93,5,0,0,0.00
2013-10-19,87.4,61.2,39.1,42.0,36.6,32.0,85,49,14,30.04,29.93,4,0,0,0.00
2013-10-20,86.3,59.4,39.1,46.0,38.5,34.0,86,53,16,29.98,29.84,4,0,0,0.00
2013-10-21,78.5,55.4,39.2,51.0,44.1,36.0,92,69,36,29.98,29.86,4,0,0,0.00
2013-10-22,83.2,57.4,39.2,51.0,44.4,37.0,93,67,27,30.00,29.86,6,0,0,0.00
2013-10-23,79.4,54.8,39.6,51.0,44.5,37.0,95,72,33,29.95,29.84,4,0,0,0.00
2013-10-24,70.3,52.3,40.2,49.0,44.3,37.0,94,76,46,30.06,29.93,5,1,0,0.00
2013-10-25,77.2,54.6,37.3,51.0,43.9,35.0,95,71,36,30.15,30.04,2,0,0,0.00
2013-10-26,86.7,58.3,37.5,48.0,39.6,33.0,94,59,15,30.12,29.96,3,0,0,0.00
2013-10-27,68.3,50.2,36.6,49.0,40.9,33.0,93,72,42,29.99,29.58,7,1,0,0.00
2013-10-28,66.6,50.7,36.3,44.0,39.4,33.0,93,68,39,29.80,29.62,8,1,0,0.00
2013-10-29,66.9,53.6,41.9,46.0,42.9,38.0,91,70,42,30.02,29.80,6,0,0,0.00
2013-10-30,70.3,51.3,35.6,46.0,39.9,33.0,95,69,39,30.12,30.02,5,0,0,0.00
2013-10-31,78.1,53.7,36.2,46.0,40.1,34.0,94,66,27,30.15,30.02,5,0,0,0.00
2013-11-1,81.8,57.2,39.2,46.0,38.9,36.0,93,59,20,30.12,29.98,3,0,0,0.00
2013-11-2,76.7,56.4,39.6,49.0,40.8,36.0,89,61,27,29.99,29.84,6,0,0,0.00
2013-11-3,70.3,51.8,35.3,40.0,28.8,20.0,78,47,16,30.01,29.89,5,0,0,0.00
2013-11-4,73.9,55.2,39.3,32.0,26.7,19.0,71,40,13,30.06,29.88,6,1,0,0.00
2013-11-5,78.6,60.1,43.3,35.0,31.2,27.0,67,37,18,30.19,30.03,10,1,0,0.07
2013-11-6,77.4,57.5,42.2,41.0,36.4,32.0,76,50,23,30.23,30.13,4,0,0,0.00
2013-11-7,78.8,58.8,45.5,40.0,37.0,33.0,71,49,21,30.15,30.01,6,0,0,0.00
2013-11-8,77.9,55.5,40.5,47.0,39.5,33.0,91,60,31,30.05,29.90,6,1,0,0.00
2013-11-9,77.4,54.6,38.3,45.0,38.7,33.0,91,61,27,30.02,29.91,5,1,0,0.00
2013-11-10,70.3,51.1,37.9,49.0,41.7,35.0,93,73,43,30.09,29.99,6,1,0,0.00
2013-11-11,67.6,50.9,36.0,47.0,41.7,34.0,95,74,43,30.15,30.04,6,0,0,0.00
2013-11-12,73.7,56.5,45.2,47.0,43.8,39.0,79,64,34,30.24,30.12,2,0,0,0.00
2013-11-13,83.8,57.2,40.2,50.0,42.9,37.0,91,65,26,30.22,30.05,5,0,0,0.00
2013-11-14,64.3,51.9,42.9,51.0,44.3,32.0,95,77,44,30.08,29.82,5,0,0,0.00
2013-11-15,73.0,53.4,38.8,39.0,34.1,27.0,80,52,19,29.83,29.67,9,1,0,0.00
2013-11-16,68.1,48.7,36.3,43.0,36.4,32.0,90,67,34,29.82,29.73,4,1,0,0.00
2013-11-17,63.2,48.8,39.2,47.0,41.5,36.0,89,77,55,30.06,29.98,1,0,0,0.00
2013-11-18,60.5,47.6,35.3,48.0,41.2,33.0,96,80,54,30.12,30.04,5,1,0,0.00
2013-11-19,54.8,52.3,49.2,54.0,50.6,45.0,97,94,84,30.07,29.90,4,0,0,0.33
2013-11-20,58.7,55.8,51.7,58.0,54.6,50.0,98,96,89,29.90,29.81,3,0,0,0.14
2013-11-21,62.6,55.8,48.2,51.0,28.1,11.0,96,44,15,29.99,29.86,11,2,0,0.00
2013-11-22,74.0,62.4,56.2,16.0,5.7,-99.9,18,11,7,30.01,29.88,16,-19,0,0.00
2013-11-23,72.8,57.7,36.6,35.0,15.7,-99.9,72,26,9,30.07,29.93,6,-20,0,0.00
2013-11-24,66.3,45.9,31.2,38.0,32.8,27.0,89,65,29,30.23,30.07,5,0,0,0.00
2013-11-25,66.4,46.3,31.9,45.0,36.1,30.0,96,73,32,30.30,30.22,5,0,0,0.00
2013-11-26,67.3,47.4,34.7,45.0,36.0,32.0,96,70,28,30.25,30.02,6,0,0,0.00
2013-11-27,68.6,50.2,37.6,43.0,37.5,33.0,89,66,33,30.02,29.81,4,0,0,0.00
2013-11-28,75.8,52.6,38.5,45.0,37.9,35.0,92,64,23,30.04,29.85,3,0,0,0.00
2013-11-29,73.3,50.4,36.0,44.0,38.5,34.0,94,69,26,30.19,30.04,5,0,0,0.00
2013-11-30,72.3,50.5,39.2,46.0,39.8,36.0,95,72,28,30.24,30.14,6,0,0,0.00
2013-12-1,71.5,50.6,36.8,47.0,40.6,35.0,95,73,36,30.30,30.18,7,0,0,0.00
2013-12-2,67.3,50.5,35.2,50.0,41.8,-99.9,96,76,46,30.20,29.91,5,-10,0,0.00
2013-12-3,58.6,49.3,36.9,50.0,31.1,14.0,89,53,25,29.91,29.79,7,0,0,0.00
2013-12-4,55.1,41.1,24.4,21.0,16.2,11.0,68,40,18,30.07,29.91,6,0,0,0.00
2013-12-5,52.5,34.4,21.1,23.0,16.8,7.0,84,55,19,30.13,30.05,5,1,0,0.00
2013-12-6,47.0,35.5,20.3,41.0,29.3,17.0,95,80,46,30.16,29.87,9,1,0,0.64
2013-12-7,47.1,37.0,26.3,41.0,28.4,20.0,95,75,34,30.23,29.87,9,1,0,0.01
2013-12-8,48.8,32.9,24.7,32.0,21.6,15.0,93,68,27,30.30,30.20,4,0,0,0.00
2013-12-9,57.8,36.1,23.6,24.0,18.2,9.0,81,56,14,30.40,30.27,5,1,0,0.00
2013-12-10,57.8,36.6,22.5,29.0,22.9,17.0,87,64,21,30.40,30.18,5,0,0,0.00
2013-12-11,63.5,40.1,26.4,36.0,27.9,24.0,93,68,24,30.22,30.14,4,0,0,0.00
2013-12-12,61.2,40.4,27.2,35.0,29.9,24.0,90,71,33,30.24,30.12,5,1,0,0.00
2013-12-13,61.8,40.7,26.9,38.0,31.0,25.0,94,73,32,30.31,30.20,6,0,0,0.00
2013-12-14,68.8,43.1,29.4,40.0,32.0,28.0,95,71,24,30.38,30.26,4,0,0,0.00
2013-12-15,65.0,42.6,29.4,40.0,33.4,28.0,95,74,36,30.36,30.22,5,0,0,0.00
2013-12-16,77.6,47.1,32.8,41.0,33.3,24.0,92,67,15,30.22,30.07,6,1,0,0.00
2013-12-17,70.4,46.8,34.4,42.0,35.1,30.0,88,68,31,30.16,30.01,4,0,0,0.00
2013-12-18,63.2,46.6,35.8,45.0,37.3,32.0,92,73,36,30.01,29.71,4,1,0,0.00
2013-12-19,61.8,50.6,36.6,40.0,24.1,6.0,93,43,16,29.91,29.68,9,2,0,0.00
2013-12-20,71.3,54.0,41.3,30.0,11.3,-9.0,63,24,7,29.96,29.88,7,1,0,0.00
2013-12-21,66.6,47.4,34.3,45.0,37.9,30.0,92,72,44,30.05,29.92,7,0,0,0.00
2013-12-22,66.8,47.1,36.9,42.0,37.2,33.0,91,72,37,30.26,30.06,5,1,0,0.00
2013-12-23,72.0,47.5,32.4,44.0,36.7,31.0,95,72,28,30.37,30.26,5,0,0,0.00
2013-12-24,76.1,48.5,35.5,44.0,37.7,31.0,94,72,24,30.31,30.16,5,0,0,0.00
2013-12-25,75.3,46.6,30.6,39.0,30.0,23.0,91,62,14,30.27,30.16,8,0,0,0.00
2013-12-26,75.1,46.4,31.0,35.0,29.1,24.0,84,59,16,30.23,30.12,4,0,0,0.00
2013-12-27,62.4,42.9,30.9,37.0,30.4,26.0,87,65,32,30.21,30.10,3,0,0,0.00
2013-12-28,76.0,50.7,28.4,34.0,24.3,16.0,90,48,12,30.12,29.99,6,1,0,0.00
2013-12-29,73.9,55.5,35.2,21.0,16.0,7.0,57,25,8,30.16,30.05,9,1,0,0.00
2013-12-30,67.8,45.8,30.6,35.0,27.1,21.0,76,53,20,30.22,30.14,6,1,0,0.00
2013-12-31,67.1,44.6,33.8,35.0,31.6,28.0,83,65,28,30.23,30.12,4,0,0,0.00
2014-1-1,66.4,44.3,29.5,34.0,29.4,25.0,87,62,25,30.18,30.09,4,0,0,0.00
2014-1-2,72.8,48.3,33.1,38.0,33.2,29.0,87,62,23,30.15,30.03,4,0,0,0.00